Chelan — WCX7878 — position and weather

sailwx.info

Track history (hours):
 
Tides and Currents Weather Stations Pressure Air Temp Water Temp Dewpoint Dewpoint Depression Visibility Wind Speed Wind Dir Waves Ship Positions

Chelan

Owner: WASHINGTON, STATE OF; Department of Transportation, OLYMPIA, WA. More information available from US FCC via Universal Licensing System and Coast Guard Vessel Documentation Center.

Last reported at 2018-Jul-18 04:58 UTC. Time now 2018-Jul-18 05:01 UTC.
Position N 48°30' W 122°41'.

Length 100 m; draft 5.1 m.

Type: Passenger vessel. MMSI: 366709770.

Date/timePositionNaut miles runAvg speedWind from/ knotsBaromVisibWave heightAir tempDewpointWater temp
2018-Jul-18 04:58N 48°30' W 122°41'0 0.0
2018-Jul-18 04:29N 48°30' W 122°41'2 3.5
2018-Jul-18 04:00N 48°32' W 122°42'612.5
2018-Jul-18 03:30N 48°34' W 122°51'611.1
2018-Jul-18 03:00N 48°33' W 122°60'1 2.6
2018-Jul-18 02:30N 48°34' W 123°01'713.3
2018-Jul-18 02:00N 48°38' W 123°09'611.2
2018-Jul-18 01:30N 48°38' W 123°17'5 9.1
2018-Jul-18 01:00N 48°39' W 123°24'0 0.1
2018-Jul-18 00:30N 48°39' W 123°24'5 9.6
2018-Jul-18 00:00N 48°39' W 123°17'611.7
2018-Jul-17 23:30N 48°38' W 123°08'714.2
2018-Jul-17 23:01N 48°33' W 122°60'510.9
2018-Jul-17 22:30N 48°34' W 122°51'612.3
2018-Jul-17 22:00N 48°31' W 122°43'2 2.7
2018-Jul-17 21:20N 48°30' W 122°41'3 8.7
2018-Jul-17 21:00N 48°31' W 122°45'713.9
2018-Jul-17 20:30N 48°34' W 122°55'713.9
2018-Jul-17 20:00N 48°36' W 123°04'713.6
2018-Jul-17 19:30N 48°39' W 123°14'613.0
2018-Jul-17 19:00N 48°39' W 123°24'0 0.2
2018-Jul-17 18:30N 48°39' W 123°24'0 0.6
2018-Jul-17 18:00N 48°38' W 123°23'714.3
2018-Jul-17 17:30N 48°38' W 123°13'816.3
2018-Jul-17 17:00N 48°35' W 123°02'2 4.9
2018-Jul-17 16:30N 48°32' W 123°01'612.8
2018-Jul-17 16:00N 48°34' W 122°52'815.5
2018-Jul-17 15:30N 48°31' W 122°41'0 0.9
2018-Jul-17 15:00N 48°30' W 122°41'611.5
2018-Jul-17 14:31N 48°32' W 122°49'4 7.3
2018-Jul-17 14:00N 48°34' W 122°53'611.1
2018-Jul-17 13:31N 48°32' W 122°46'4 6.9
2018-Jul-17 13:00N 48°30' W 122°41'0 0.0
2018-Jul-17 10:46N 48°30' W 122°41'0 0.0
2018-Jul-17 10:30N 48°30' W 122°41'0 0.0
2018-Jul-17 09:57N 48°30' W 122°41'0 0.0
2018-Jul-17 09:30N 48°30' W 122°41'0 0.0
2018-Jul-17 09:00N 48°30' W 122°41'0 0.0
2018-Jul-17 08:28N 48°30' W 122°41'0 0.0
2018-Jul-17 07:52N 48°30' W 122°41'0 0.0
2018-Jul-17 07:30N 48°30' W 122°41'0 0.1
2018-Jul-17 07:00N 48°30' W 122°41'0 0.1
2018-Jul-17 06:19N 48°30' W 122°41'0 0.0
2018-Jul-17 05:57N 48°30' W 122°41'0 0.0
2018-Jul-17 05:30N 48°30' W 122°41'0 0.1
2018-Jul-17 04:26N 48°30' W 122°41'2 4.4
2018-Jul-17 04:00N 48°32' W 122°43'713.2
2018-Jul-17 03:30N 48°34' W 122°52'611.7
2018-Jul-17 03:00N 48°32' W 123°01'1 2.9
2018-Jul-17 02:30N 48°34' W 123°01'714.0
2018-Jul-17 02:00N 48°38' W 123°09'611.5
2018-Jul-17 01:30N 48°39' W 123°18'4 7.8
2018-Jul-17 01:00N 48°39' W 123°24'0 0.0
2018-Jul-17 00:30N 48°39' W 123°24'1110.5
2018-Jul-16 23:30N 48°38' W 123°08'612.8
2018-Jul-16 23:01N 48°34' W 123°00'611.1
2018-Jul-16 22:30N 48°34' W 122°52'612.9
2018-Jul-16 22:00N 48°31' W 122°43'2 2.7
2018-Jul-16 21:16N 48°30' W 122°41'310.7
2018-Jul-16 21:00N 48°31' W 122°44'714.1
2018-Jul-16 20:30N 48°34' W 122°55'814.6
2018-Jul-16 19:59N 48°37' W 123°05'612.1
2018-Jul-16 19:31N 48°38' W 123°13'713.7
2018-Jul-16 19:01N 48°39' W 123°24'0 0.1
2018-Jul-16 18:30N 48°39' W 123°24'2 4.0
2018-Jul-16 18:00N 48°40' W 123°21'816.3
2018-Jul-16 17:30N 48°38' W 123°09'815.5
2018-Jul-16 17:00N 48°33' W 123°00'0 0.9
2018-Jul-16 16:30N 48°33' W 123°01'612.8
2018-Jul-16 16:00N 48°33' W 122°51'815.1
2018-Jul-16 15:30N 48°31' W 122°40'1 2.0
2018-Jul-16 15:00N 48°31' W 122°42'714.8
2018-Jul-16 14:30N 48°34' W 122°52'1 2.8
2018-Jul-16 14:01N 48°33' W 122°50'713.9
2018-Jul-16 13:30N 48°30' W 122°41'0 0.1
2018-Jul-16 12:59N 48°30' W 122°41'0 0.0
2018-Jul-16 12:30N 48°30' W 122°41'0 0.0
2018-Jul-16 11:58N 48°30' W 122°41'0 0.0
2018-Jul-16 11:28N 48°30' W 122°41'0 0.0
2018-Jul-16 11:01N 48°30' W 122°41'0 0.0
2018-Jul-16 10:14N 48°30' W 122°41'0 0.0
2018-Jul-16 09:31N 48°30' W 122°41'0 0.0
2018-Jul-16 09:31N 48°30' W 122°41'0 0.0
2018-Jul-16 09:01N 48°30' W 122°41'0 0.0
2018-Jul-16 08:29N 48°30' W 122°41'0 0.0
2018-Jul-16 07:52N 48°30' W 122°41'0 0.0
2018-Jul-16 07:29N 48°30' W 122°41'0 0.0
2018-Jul-16 07:00N 48°30' W 122°41'0 0.0
2018-Jul-16 06:31N 48°30' W 122°41'0 0.0
2018-Jul-16 05:59N 48°30' W 122°41'0 0.0
2018-Jul-16 05:30N 48°30' W 122°41'0 0.0
2018-Jul-16 05:01N 48°30' W 122°41'1 1.4
2018-Jul-16 04:30N 48°31' W 122°41'713.4
2018-Jul-16 04:01N 48°33' W 122°51'510.2
2018-Jul-16 03:30N 48°32' W 122°58'2 3.3
2018-Jul-16 02:58N 48°32' W 123°01'4 8.5
2018-Jul-16 02:30N 48°36' W 123°03'713.0
2018-Jul-16 01:58N 48°38' W 123°13'511.6
2018-Jul-16 01:30N 48°39' W 123°21'2 4.2
2018-Jul-16 01:00N 48°39' W 123°24'0 0.3
2018-Jul-16 00:30N 48°38' W 123°24'611.0
2018-Jul-16 00:00N 48°38' W 123°15'611.4
2018-Jul-15 23:29N 48°38' W 123°06'713.6
2018-Jul-15 23:00N 48°33' W 122°59'611.1
2018-Jul-15 22:30N 48°33' W 122°51'713.1
2018-Jul-15 22:00N 48°31' W 122°41'1 1.1
2018-Jul-15 21:19N 48°30' W 122°41'3 9.1
2018-Jul-15 21:00N 48°31' W 122°45'713.9
2018-Jul-15 20:30N 48°34' W 122°54'713.8
2018-Jul-15 20:00N 48°36' W 123°04'612.2
2018-Jul-15 19:30N 48°38' W 123°13'714.0
2018-Jul-15 19:01N 48°39' W 123°24'0 0.2
2018-Jul-15 18:30N 48°39' W 123°24'1 2.5
2018-Jul-15 18:00N 48°39' W 123°22'1015.5
2018-Jul-15 17:20N 48°38' W 123°06'515.0
2018-Jul-15 17:00N 48°34' W 123°01'2 3.6
2018-Jul-15 16:30N 48°32' W 123°01'612.5
2018-Jul-15 16:00N 48°34' W 122°51'815.2
2018-Jul-15 15:30N 48°31' W 122°41'0 0.9
2018-Jul-15 14:59N 48°30' W 122°41'611.9
2018-Jul-15 14:31N 48°32' W 122°49'4 7.4
2018-Jul-15 14:00N 48°34' W 122°53'510.6
2018-Jul-15 13:30N 48°32' W 122°46'4 7.6
2018-Jul-15 13:00N 48°30' W 122°41'0 0.0
2018-Jul-15 12:23N 48°30' W 122°41'0 0.0
2018-Jul-15 12:00N 48°30' W 122°41'0 0.0
2018-Jul-15 11:30N 48°30' W 122°41'0 0.0
2018-Jul-15 10:59N 48°30' W 122°41'0 0.0
2018-Jul-15 10:29N 48°30' W 122°41'0 0.0
2018-Jul-15 09:59N 48°30' W 122°41'0 0.0
2018-Jul-15 09:29N 48°30' W 122°41'0 0.0
2018-Jul-15 09:00N 48°30' W 122°41'0 0.0
2018-Jul-15 07:59N 48°30' W 122°41'0 0.1
2018-Jul-15 07:30N 48°30' W 122°41'0 0.0
2018-Jul-15 07:00N 48°30' W 122°41'0 0.0
2018-Jul-15 06:30N 48°30' W 122°41'0 0.0
2018-Jul-15 05:51N 48°30' W 122°41'0 0.0
2018-Jul-15 05:30N 48°30' W 122°41'0 0.5
2018-Jul-15 05:00N 48°31' W 122°40'0 0.4
2018-Jul-15 04:21N 48°30' W 122°41'0 0.0
2018-Jul-15 04:00N 48°30' W 122°41'2 3.8
2018-Jul-15 03:31N 48°32' W 122°43'714.9
2018-Jul-15 03:01N 48°35' W 122°53'611.1
2018-Jul-15 02:30N 48°32' W 123°01'510.1
2018-Jul-15 01:59N 48°37' W 123°05'613.5
2018-Jul-15 01:30N 48°38' W 123°14'612.0
2018-Jul-15 01:00N 48°38' W 123°23'0 0.7
2018-Jul-15 00:30N 48°39' W 123°24'1 1.0
2018-Jul-15 00:00N 48°38' W 123°23'712.9
2018-Jul-14 23:29N 48°38' W 123°13'713.2
2018-Jul-14 22:59N 48°36' W 123°03'613.5
2018-Jul-14 22:30N 48°34' W 122°54'714.7
2018-Jul-14 22:00N 48°31' W 122°44'2 2.9
2018-Jul-14 21:15N 48°30' W 122°41'2 9.8
2018-Jul-14 21:01N 48°31' W 122°44'714.3
2018-Jul-14 20:31N 48°34' W 122°54'714.0
2018-Jul-14 19:59N 48°36' W 123°04'613.3
2018-Jul-14 19:31N 48°39' W 123°13'713.8
2018-Jul-14 19:00N 48°39' W 123°24'0 0.2
2018-Jul-14 18:30N 48°39' W 123°24'0 0.8
2018-Jul-14 18:00N 48°38' W 123°23'713.3
2018-Jul-14 17:30N 48°38' W 123°13'816.7
2018-Jul-14 17:00N 48°35' W 123°02'2 5.0
2018-Jul-14 16:31N 48°32' W 123°01'712.8
2018-Jul-14 16:00N 48°34' W 122°51'714.9
2018-Jul-14 15:30N 48°31' W 122°41'0 0.9
2018-Jul-14 15:00N 48°30' W 122°41'611.4
2018-Jul-14 14:30N 48°32' W 122°49'2 1.9
2018-Jul-14 13:30N 48°32' W 122°46'4 7.7
2018-Jul-14 13:00N 48°30' W 122°41'0 0.0
2018-Jul-14 10:39N 48°30' W 122°41'0 0.0
2018-Jul-14 10:28N 48°30' W 122°41'0 0.0
2018-Jul-14 09:53N 48°30' W 122°41'0 0.0
2018-Jul-14 09:29N 48°30' W 122°41'0 0.0
2018-Jul-14 08:59N 48°30' W 122°41'0 0.0
2018-Jul-14 08:21N 48°30' W 122°41'0 0.0
2018-Jul-14 08:00N 48°30' W 122°41'0 0.0
2018-Jul-14 07:30N 48°30' W 122°41'0 0.0
2018-Jul-14 07:00N 48°30' W 122°41'0 0.0
2018-Jul-14 06:30N 48°30' W 122°41'0 0.0
2018-Jul-14 05:58N 48°30' W 122°41'0 0.0
2018-Jul-14 05:30N 48°30' W 122°41'0 0.0
2018-Jul-14 05:00N 48°30' W 122°41'0 0.0
2018-Jul-14 04:30N 48°30' W 122°41'0 0.0
2018-Jul-14 03:58N 48°30' W 122°41'1 1.1
2018-Jul-14 03:31N 48°31' W 122°40'814.9
2018-Jul-14 03:00N 48°33' W 122°51'613.0
2018-Jul-14 02:30N 48°32' W 123°01'3 6.6
2018-Jul-14 02:00N 48°35' W 123°03'714.7
2018-Jul-14 01:30N 48°38' W 123°13'713.6
2018-Jul-14 01:00N 48°38' W 123°24'0 0.3
2018-Jul-14 00:30N 48°39' W 123°24'2 4.3
2018-Jul-14 00:01N 48°39' W 123°21'612.5
2018-Jul-13 23:30N 48°38' W 123°12'714.1
2018-Jul-13 23:00N 48°35' W 123°02'713.0
2018-Jul-13 22:30N 48°34' W 122°52'815.5
2018-Jul-13 22:00N 48°31' W 122°42'1 1.2
2018-Jul-13 21:11N 48°30' W 122°41'210.4
2018-Jul-13 21:00N 48°31' W 122°43'714.6
2018-Jul-13 20:31N 48°35' W 122°53'612.7
2018-Jul-13 20:00N 48°35' W 123°03'714.7
2018-Jul-13 19:30N 48°38' W 123°13'714.1
2018-Jul-13 19:00N 48°38' W 123°24'0 0.3
2018-Jul-13 18:30N 48°39' W 123°24'1 2.4
2018-Jul-13 18:00N 48°39' W 123°22'714.3
2018-Jul-13 17:30N 48°38' W 123°11'816.0
2018-Jul-13 17:00N 48°34' W 123°01'2 3.3
2018-Jul-13 16:30N 48°32' W 123°01'612.9
2018-Jul-13 16:00N 48°34' W 122°51'714.8
2018-Jul-13 15:30N 48°31' W 122°41'0 0.8
2018-Jul-13 14:56N 48°30' W 122°41'9 9.7
2018-Jul-13 14:00N 48°34' W 122°53'510.5
2018-Jul-13 13:30N 48°32' W 122°46'4 7.7
2018-Jul-13 13:00N 48°30' W 122°41'0 0.0
2018-Jul-13 09:37N 48°30' W 122°41'0 0.0
2018-Jul-13 06:45N 48°30' W 122°41'0 0.0
2018-Jul-13 06:30N 48°30' W 122°41'0 0.1
2018-Jul-13 05:59N 48°30' W 122°41'0 0.1
2018-Jul-13 05:30N 48°30' W 122°41'0 0.0
2018-Jul-13 05:00N 48°30' W 122°41'0 0.0
2018-Jul-13 04:29N 48°30' W 122°41'0 0.1
2018-Jul-13 04:00N 48°30' W 122°41'4 8.1
2018-Jul-13 03:30N 48°32' W 122°46'612.8
2018-Jul-13 03:01N 48°33' W 122°56'3 6.8
2018-Jul-13 02:31N 48°32' W 123°01'610.4
2018-Jul-13 01:58N 48°37' W 123°05'613.9
2018-Jul-13 01:30N 48°38' W 123°15'611.9
2018-Jul-13 01:00N 48°38' W 123°24'0 0.1
2018-Jul-13 00:30N 48°39' W 123°24'611.7
2018-Jul-13 00:00N 48°38' W 123°15'713.8
2018-Jul-12 23:30N 48°37' W 123°05'713.9
2018-Jul-12 23:00N 48°33' W 122°56'713.2
2018-Jul-12 22:30N 48°32' W 122°46'4 7.2
2018-Jul-12 22:00N 48°30' W 122°41'3 6.2
2018-Jul-12 21:30N 48°32' W 122°45'611.9
2018-Jul-12 21:00N 48°34' W 122°53'510.0
2018-Jul-12 20:30N 48°34' W 123°00'714.1
2018-Jul-12 20:00N 48°38' W 123°09'612.2
2018-Jul-12 19:30N 48°39' W 123°18'4 7.4
2018-Jul-12 19:00N 48°39' W 123°24'1 3.0
2018-Jul-12 18:30N 48°39' W 123°22'611.1
2018-Jul-12 18:00N 48°39' W 123°13'712.9
2018-Jul-12 17:28N 48°36' W 123°04'4 9.4
2018-Jul-12 17:01N 48°32' W 123°01'3 6.5
2018-Jul-12 16:30N 48°33' W 122°56'5 9.8
2018-Jul-12 16:00N 48°32' W 122°49'6 6.3
2018-Jul-12 15:07N 48°30' W 122°41'1 7.4
2018-Jul-12 15:00N 48°31' W 122°41'713.5
2018-Jul-12 14:30N 48°33' W 122°51'2 3.0
2018-Jul-12 14:00N 48°34' W 122°53'611.6
2018-Jul-12 13:30N 48°31' W 122°45'3 6.3
2018-Jul-12 13:00N 48°30' W 122°41'0 0.0
2018-Jul-12 12:15N 48°30' W 122°41'0 0.0
2018-Jul-12 10:19N 48°30' W 122°41'0 0.0
2018-Jul-12 08:39N 48°30' W 122°41'0 0.3
2018-Jul-12 08:30N 48°30' W 122°41'0 0.0
2018-Jul-12 07:58N 48°30' W 122°41'0 0.0
2018-Jul-12 07:27N 48°30' W 122°41'0 0.0
2018-Jul-12 06:59N 48°30' W 122°41'0 0.0
2018-Jul-12 06:26N 48°30' W 122°41'0 0.0
2018-Jul-12 06:00N 48°30' W 122°41'0 0.0
2018-Jul-12 05:31N 48°30' W 122°41'0 0.0
2018-Jul-12 05:00N 48°30' W 122°41'0 0.0
2018-Jul-12 04:31N 48°30' W 122°41'0 0.1
2018-Jul-12 03:59N 48°30' W 122°41'612.0
2018-Jul-12 03:30N 48°32' W 122°49'612.1
2018-Jul-12 03:00N 48°32' W 122°58'2 3.7
2018-Jul-12 02:30N 48°32' W 123°01'510.1
2018-Jul-12 02:00N 48°37' W 123°05'612.8
2018-Jul-12 01:30N 48°38' W 123°14'612.3
2018-Jul-12 01:00N 48°38' W 123°23'1 1.1
2018-Jul-12 00:30N 48°39' W 123°24'4 8.0
2018-Jul-12 00:00N 48°39' W 123°18'714.5
2018-Jul-11 23:29N 48°38' W 123°07'816.1
2018-Jul-11 23:00N 48°33' W 122°57'612.1
2018-Jul-11 22:30N 48°32' W 122°48'5 7.7
2018-Jul-11 21:49N 48°30' W 122°41'2 6.6
2018-Jul-11 21:30N 48°32' W 122°43'612.4
2018-Jul-11 21:00N 48°34' W 122°52'510.0
2018-Jul-11 20:30N 48°33' W 122°59'713.8
2018-Jul-11 19:58N 48°38' W 123°08'612.4
2018-Jul-11 19:30N 48°38' W 123°17'5 9.2
2018-Jul-11 19:01N 48°39' W 123°24'0 0.2
2018-Jul-11 18:30N 48°38' W 123°24'611.3
2018-Jul-11 18:00N 48°39' W 123°15'812.5
2018-Jul-11 17:22N 48°36' W 123°03'411.2
2018-Jul-11 17:00N 48°33' W 123°01'2 3.9
2018-Jul-11 16:30N 48°32' W 122°58'510.4
2018-Jul-11 16:00N 48°33' W 122°50'612.8
2018-Jul-11 15:30N 48°31' W 122°41'0 0.6
2018-Jul-11 15:00N 48°31' W 122°40'713.1
2018-Jul-11 14:30N 48°33' W 122°50'3 5.1
2018-Jul-11 14:01N 48°34' W 122°53'611.5
2018-Jul-11 13:30N 48°31' W 122°45'3 6.2
2018-Jul-11 12:59N 48°30' W 122°41'0 0.0
2018-Jul-11 12:29N 48°30' W 122°41'0 0.0
2018-Jul-11 12:00N 48°30' W 122°41'0 0.0
2018-Jul-11 11:01N 48°30' W 122°41'0 0.0
2018-Jul-11 11:00N 48°30' W 122°41'0 0.0
2018-Jul-11 09:25N 48°30' W 122°41'0 0.0
2018-Jul-11 06:51N 48°30' W 122°41'0 0.0
2018-Jul-11 06:21N 48°30' W 122°41'0 0.0
2018-Jul-11 06:00N 48°30' W 122°41'0 0.0
2018-Jul-11 05:30N 48°30' W 122°41'0 0.0
2018-Jul-11 05:00N 48°30' W 122°41'0 0.0
2018-Jul-11 04:29N 48°30' W 122°41'0 0.0
2018-Jul-11 04:00N 48°30' W 122°41'1 2.7
2018-Jul-11 03:30N 48°31' W 122°42'714.8
2018-Jul-11 03:00N 48°34' W 122°52'612.0
2018-Jul-11 02:30N 48°32' W 123°01'5 9.2
2018-Jul-11 01:58N 48°37' W 123°05'715.6
2018-Jul-11 01:30N 48°38' W 123°15'510.6
2018-Jul-11 01:00N 48°38' W 123°23'1 1.4
2018-Jul-11 00:30N 48°39' W 123°24'510.2
2018-Jul-11 00:00N 48°38' W 123°16'713.7
2018-Jul-10 23:30N 48°37' W 123°06'815.9
2018-Jul-10 23:00N 48°33' W 122°56'612.8
2018-Jul-10 22:30N 48°32' W 122°47'4 8.2
2018-Jul-10 22:00N 48°30' W 122°41'3 5.9
2018-Jul-10 21:30N 48°32' W 122°45'612.6
2018-Jul-10 21:01N 48°34' W 122°53'5 9.7
2018-Jul-10 20:30N 48°34' W 123°00'713.3
2018-Jul-10 19:58N 48°38' W 123°09'511.4
2018-Jul-10 19:30N 48°39' W 123°17'4 8.8
2018-Jul-10 19:00N 48°39' W 123°24'1 1.5
2018-Jul-10 18:31N 48°38' W 123°23'611.7
2018-Jul-10 18:00N 48°39' W 123°14'712.5
2018-Jul-10 17:25N 48°36' W 123°03'410.0
2018-Jul-10 17:00N 48°32' W 123°01'4 7.8
2018-Jul-10 16:30N 48°33' W 122°55'510.6
2018-Jul-10 16:00N 48°32' W 122°48'5 8.9
2018-Jul-10 15:28N 48°30' W 122°41'2 3.9
2018-Jul-10 15:00N 48°31' W 122°43'713.6
2018-Jul-10 14:31N 48°34' W 122°52'0 0.0
2018-Jul-10 14:00N 48°34' W 122°52'612.2
2018-Jul-10 13:30N 48°31' W 122°44'3 5.2
2018-Jul-10 13:00N 48°30' W 122°41'0 0.0
2018-Jul-10 09:46N 48°30' W 122°41'0 0.0
2018-Jul-10 08:46N 48°30' W 122°41'0 0.1
2018-Jul-10 08:21N 48°30' W 122°41'0 0.1
2018-Jul-10 07:53N 48°30' W 122°41'0 0.0
2018-Jul-10 06:39N 48°30' W 122°41'0 0.0
2018-Jul-10 06:22N 48°30' W 122°41'0 0.0
2018-Jul-10 06:00N 48°30' W 122°41'0 0.0
2018-Jul-10 05:29N 48°30' W 122°41'0 0.1
2018-Jul-10 04:48N 48°30' W 122°41'0 0.0
2018-Jul-10 04:02N 48°30' W 122°41'0 3.8
2018-Jul-10 04:00N 48°31' W 122°41'713.2
2018-Jul-10 03:31N 48°33' W 122°50'612.7
2018-Jul-10 03:00N 48°33' W 122°60'1 1.4
2018-Jul-10 02:30N 48°32' W 123°01'714.1
2018-Jul-10 02:00N 48°38' W 123°08'815.9
2018-Jul-10 01:29N 48°39' W 123°20'3 5.5
2018-Jul-10 01:01N 48°39' W 123°24'3 5.1
2018-Jul-10 00:30N 48°39' W 123°20'510.7
2018-Jul-10 00:00N 48°38' W 123°12'815.6
2018-Jul-09 23:31N 48°35' W 123°01'612.8
2018-Jul-09 23:01N 48°34' W 122°52'815.1
2018-Jul-09 22:30N 48°31' W 122°41'1 1.7
2018-Jul-09 22:00N 48°30' W 122°41'4 8.4
2018-Jul-09 21:30N 48°32' W 122°47'611.4
2018-Jul-09 21:00N 48°34' W 122°55'510.2
2018-Jul-09 20:30N 48°35' W 123°02'613.1
2018-Jul-09 20:01N 48°38' W 123°11'510.3
2018-Jul-09 19:30N 48°39' W 123°19'3 7.0
2018-Jul-09 19:00N 48°39' W 123°24'1 1.8
2018-Jul-09 18:30N 48°39' W 123°22'611.8
2018-Jul-09 18:00N 48°38' W 123°14'612.1
2018-Jul-09 17:30N 48°37' W 123°05'510.5
2018-Jul-09 17:00N 48°32' W 123°01'4 8.3
2018-Jul-09 16:30N 48°33' W 122°55'611.1
2018-Jul-09 16:00N 48°32' W 122°47'4 8.6
2018-Jul-09 15:30N 48°30' W 122°41'1 1.6
2018-Jul-09 15:00N 48°31' W 122°41'713.4
2018-Jul-09 14:30N 48°33' W 122°51'2 3.7
2018-Jul-09 14:01N 48°34' W 122°53'713.7
2018-Jul-09 13:31N 48°31' W 122°44'2 4.1
2018-Jul-09 12:59N 48°30' W 122°41'0 0.0
2018-Jul-09 11:48N 48°30' W 122°41'0 0.0
2018-Jul-09 10:01N 48°30' W 122°41'0 0.0
2018-Jul-09 06:23N 48°30' W 122°41'0 0.0
2018-Jul-09 05:59N 48°30' W 122°41'0 0.0
2018-Jul-09 05:30N 48°30' W 122°41'0 0.0
2018-Jul-09 04:58N 48°30' W 122°41'0 0.0
2018-Jul-09 04:30N 48°30' W 122°41'0 0.1
2018-Jul-09 04:00N 48°30' W 122°41'511.0
2018-Jul-09 03:30N 48°32' W 122°48'612.2
2018-Jul-09 03:00N 48°32' W 122°58'2 4.2
2018-Jul-09 02:30N 48°32' W 123°01'713.7
2018-Jul-09 02:00N 48°38' W 123°07'815.3
2018-Jul-09 01:30N 48°39' W 123°18'4 7.2
2018-Jul-09 01:00N 48°39' W 123°24'0 0.0
2018-Jul-09 00:30N 48°39' W 123°24'713.1
2018-Jul-09 00:00N 48°38' W 123°14'815.1
2018-Jul-08 23:30N 48°36' W 123°03'713.9
2018-Jul-08 23:01N 48°35' W 122°53'815.0
2018-Jul-08 22:31N 48°31' W 122°43'2 1.9
2018-Jul-08 21:40N 48°31' W 122°41'210.9
2018-Jul-08 21:30N 48°31' W 122°43'713.1
2018-Jul-08 21:01N 48°34' W 122°52'510.6
2018-Jul-08 20:30N 48°34' W 122°60'714.3
2018-Jul-08 20:00N 48°38' W 123°09'612.1
2018-Jul-08 19:30N 48°39' W 123°18'4 7.7
2018-Jul-08 19:00N 48°39' W 123°24'0 0.2
2018-Jul-08 18:30N 48°38' W 123°24'612.0
2018-Jul-08 18:00N 48°38' W 123°14'712.0
2018-Jul-08 17:25N 48°36' W 123°04'511.7
2018-Jul-08 17:01N 48°32' W 123°01'3 6.0
2018-Jul-08 16:30N 48°33' W 122°56'5 9.4
2018-Jul-08 16:00N 48°32' W 122°49'6 6.3
2018-Jul-08 15:04N 48°30' W 122°41'0 2.4
2018-Jul-08 14:59N 48°31' W 122°40'613.3
2018-Jul-08 14:30N 48°32' W 122°50'3 6.1
2018-Jul-08 14:01N 48°34' W 122°53'612.6
2018-Jul-08 13:30N 48°31' W 122°44'3 5.5
2018-Jul-08 13:00N 48°30' W 122°41'0 0.0
2018-Jul-08 12:24N 48°30' W 122°41'0 0.0
2018-Jul-08 11:57N 48°30' W 122°41'0 0.0
2018-Jul-08 11:23N 48°30' W 122°41'0 0.0
2018-Jul-08 10:54N 48°30' W 122°41'0 0.0
2018-Jul-08 10:07N 48°30' W 122°41'0 0.0
2018-Jul-08 09:47N 48°30' W 122°41'0 0.0
2018-Jul-08 06:16N 48°30' W 122°41'0 0.0
2018-Jul-08 06:00N 48°30' W 122°41'0 0.0
2018-Jul-08 05:30N 48°30' W 122°41'0 0.0
2018-Jul-08 04:59N 48°30' W 122°41'  
Track history (hours):
 
Tides and Currents Weather Stations Pressure Air Temp Water Temp Dewpoint Dewpoint Depression Visibility Wind Speed Wind Dir Waves Ship Positions

Chelan

Owner: WASHINGTON, STATE OF; Department of Transportation, OLYMPIA, WA. More information available from US FCC via Universal Licensing System and Coast Guard Vessel Documentation Center.

Last reported at 2018-Jul-18 04:58 UTC. Time now 2018-Jul-18 05:01 UTC.
Position N 48°30' W 122°41'.

Length 100 m; draft 5.1 m.

Type: Passenger vessel. MMSI: 366709770.

Date/timePositionNaut miles runAvg speedWind from/ knotsBaromVisibWave heightAir tempDewpointWater temp
2018-Jul-18 04:58N 48°30' W 122°41'0 0.0
2018-Jul-18 04:29N 48°30' W 122°41'2 3.5
2018-Jul-18 04:00N 48°32' W 122°42'612.5
2018-Jul-18 03:30N 48°34' W 122°51'611.1
2018-Jul-18 03:00N 48°33' W 122°60'1 2.6
2018-Jul-18 02:30N 48°34' W 123°01'713.3
2018-Jul-18 02:00N 48°38' W 123°09'611.2
2018-Jul-18 01:30N 48°38' W 123°17'5 9.1
2018-Jul-18 01:00N 48°39' W 123°24'0 0.1
2018-Jul-18 00:30N 48°39' W 123°24'5 9.6
2018-Jul-18 00:00N 48°39' W 123°17'611.7
2018-Jul-17 23:30N 48°38' W 123°08'714.2
2018-Jul-17 23:01N 48°33' W 122°60'510.9
2018-Jul-17 22:30N 48°34' W 122°51'612.3
2018-Jul-17 22:00N 48°31' W 122°43'2 2.7
2018-Jul-17 21:20N 48°30' W 122°41'3 8.7
2018-Jul-17 21:00N 48°31' W 122°45'713.9
2018-Jul-17 20:30N 48°34' W 122°55'713.9
2018-Jul-17 20:00N 48°36' W 123°04'713.6
2018-Jul-17 19:30N 48°39' W 123°14'613.0
2018-Jul-17 19:00N 48°39' W 123°24'0 0.2
2018-Jul-17 18:30N 48°39' W 123°24'0 0.6
2018-Jul-17 18:00N 48°38' W 123°23'714.3
2018-Jul-17 17:30N 48°38' W 123°13'816.3
2018-Jul-17 17:00N 48°35' W 123°02'2 4.9
2018-Jul-17 16:30N 48°32' W 123°01'612.8
2018-Jul-17 16:00N 48°34' W 122°52'815.5
2018-Jul-17 15:30N 48°31' W 122°41'0 0.9
2018-Jul-17 15:00N 48°30' W 122°41'611.5
2018-Jul-17 14:31N 48°32' W 122°49'4 7.3
2018-Jul-17 14:00N 48°34' W 122°53'611.1
2018-Jul-17 13:31N 48°32' W 122°46'4 6.9
2018-Jul-17 13:00N 48°30' W 122°41'0 0.0
2018-Jul-17 10:46N 48°30' W 122°41'0 0.0
2018-Jul-17 10:30N 48°30' W 122°41'0 0.0
2018-Jul-17 09:57N 48°30' W 122°41'0 0.0
2018-Jul-17 09:30N 48°30' W 122°41'0 0.0
2018-Jul-17 09:00N 48°30' W 122°41'0 0.0
2018-Jul-17 08:28N 48°30' W 122°41'0 0.0
2018-Jul-17 07:52N 48°30' W 122°41'0 0.0
2018-Jul-17 07:30N 48°30' W 122°41'0 0.1
2018-Jul-17 07:00N 48°30' W 122°41'0 0.1
2018-Jul-17 06:19N 48°30' W 122°41'0 0.0
2018-Jul-17 05:57N 48°30' W 122°41'0 0.0
2018-Jul-17 05:30N 48°30' W 122°41'0 0.1
2018-Jul-17 04:26N 48°30' W 122°41'2 4.4
2018-Jul-17 04:00N 48°32' W 122°43'713.2
2018-Jul-17 03:30N 48°34' W 122°52'611.7
2018-Jul-17 03:00N 48°32' W 123°01'1 2.9
2018-Jul-17 02:30N 48°34' W 123°01'714.0
2018-Jul-17 02:00N 48°38' W 123°09'611.5
2018-Jul-17 01:30N 48°39' W 123°18'4 7.8
2018-Jul-17 01:00N 48°39' W 123°24'0 0.0
2018-Jul-17 00:30N 48°39' W 123°24'1110.5
2018-Jul-16 23:30N 48°38' W 123°08'612.8
2018-Jul-16 23:01N 48°34' W 123°00'611.1
2018-Jul-16 22:30N 48°34' W 122°52'612.9
2018-Jul-16 22:00N 48°31' W 122°43'2 2.7
2018-Jul-16 21:16N 48°30' W 122°41'310.7
2018-Jul-16 21:00N 48°31' W 122°44'714.1
2018-Jul-16 20:30N 48°34' W 122°55'814.6
2018-Jul-16 19:59N 48°37' W 123°05'612.1
2018-Jul-16 19:31N 48°38' W 123°13'713.7
2018-Jul-16 19:01N 48°39' W 123°24'0 0.1
2018-Jul-16 18:30N 48°39' W 123°24'2 4.0
2018-Jul-16 18:00N 48°40' W 123°21'816.3
2018-Jul-16 17:30N 48°38' W 123°09'815.5
2018-Jul-16 17:00N 48°33' W 123°00'0 0.9
2018-Jul-16 16:30N 48°33' W 123°01'612.8
2018-Jul-16 16:00N 48°33' W 122°51'815.1
2018-Jul-16 15:30N 48°31' W 122°40'1 2.0
2018-Jul-16 15:00N 48°31' W 122°42'714.8
2018-Jul-16 14:30N 48°34' W 122°52'1 2.8
2018-Jul-16 14:01N 48°33' W 122°50'713.9
2018-Jul-16 13:30N 48°30' W 122°41'0 0.1
2018-Jul-16 12:59N 48°30' W 122°41'0 0.0
2018-Jul-16 12:30N 48°30' W 122°41'0 0.0
2018-Jul-16 11:58N 48°30' W 122°41'0 0.0
2018-Jul-16 11:28N 48°30' W 122°41'0 0.0
2018-Jul-16 11:01N 48°30' W 122°41'0 0.0
2018-Jul-16 10:14N 48°30' W 122°41'0 0.0
2018-Jul-16 09:31N 48°30' W 122°41'0 0.0
2018-Jul-16 09:31N 48°30' W 122°41'0 0.0
2018-Jul-16 09:01N 48°30' W 122°41'0 0.0
2018-Jul-16 08:29N 48°30' W 122°41'0 0.0
2018-Jul-16 07:52N 48°30' W 122°41'0 0.0
2018-Jul-16 07:29N 48°30' W 122°41'0 0.0
2018-Jul-16 07:00N 48°30' W 122°41'0 0.0
2018-Jul-16 06:31N 48°30' W 122°41'0 0.0
2018-Jul-16 05:59N 48°30' W 122°41'0 0.0
2018-Jul-16 05:30N 48°30' W 122°41'0 0.0
2018-Jul-16 05:01N 48°30' W 122°41'1 1.4
2018-Jul-16 04:30N 48°31' W 122°41'713.4
2018-Jul-16 04:01N 48°33' W 122°51'510.2
2018-Jul-16 03:30N 48°32' W 122°58'2 3.3
2018-Jul-16 02:58N 48°32' W 123°01'4 8.5
2018-Jul-16 02:30N 48°36' W 123°03'713.0
2018-Jul-16 01:58N 48°38' W 123°13'511.6
2018-Jul-16 01:30N 48°39' W 123°21'2 4.2
2018-Jul-16 01:00N 48°39' W 123°24'0 0.3
2018-Jul-16 00:30N 48°38' W 123°24'611.0
2018-Jul-16 00:00N 48°38' W 123°15'611.4
2018-Jul-15 23:29N 48°38' W 123°06'713.6
2018-Jul-15 23:00N 48°33' W 122°59'611.1
2018-Jul-15 22:30N 48°33' W 122°51'713.1
2018-Jul-15 22:00N 48°31' W 122°41'1 1.1
2018-Jul-15 21:19N 48°30' W 122°41'3 9.1
2018-Jul-15 21:00N 48°31' W 122°45'713.9
2018-Jul-15 20:30N 48°34' W 122°54'713.8
2018-Jul-15 20:00N 48°36' W 123°04'612.2
2018-Jul-15 19:30N 48°38' W 123°13'714.0
2018-Jul-15 19:01N 48°39' W 123°24'0 0.2
2018-Jul-15 18:30N 48°39' W 123°24'1 2.5
2018-Jul-15 18:00N 48°39' W 123°22'1015.5
2018-Jul-15 17:20N 48°38' W 123°06'515.0
2018-Jul-15 17:00N 48°34' W 123°01'2 3.6
2018-Jul-15 16:30N 48°32' W 123°01'612.5
2018-Jul-15 16:00N 48°34' W 122°51'815.2
2018-Jul-15 15:30N 48°31' W 122°41'0 0.9
2018-Jul-15 14:59N 48°30' W 122°41'611.9
2018-Jul-15 14:31N 48°32' W 122°49'4 7.4
2018-Jul-15 14:00N 48°34' W 122°53'510.6
2018-Jul-15 13:30N 48°32' W 122°46'4 7.6
2018-Jul-15 13:00N 48°30' W 122°41'0 0.0
2018-Jul-15 12:23N 48°30' W 122°41'0 0.0
2018-Jul-15 12:00N 48°30' W 122°41'0 0.0
2018-Jul-15 11:30N 48°30' W 122°41'0 0.0
2018-Jul-15 10:59N 48°30' W 122°41'0 0.0
2018-Jul-15 10:29N 48°30' W 122°41'0 0.0
2018-Jul-15 09:59N 48°30' W 122°41'0 0.0
2018-Jul-15 09:29N 48°30' W 122°41'0 0.0
2018-Jul-15 09:00N 48°30' W 122°41'0 0.0
2018-Jul-15 07:59N 48°30' W 122°41'0 0.1
2018-Jul-15 07:30N 48°30' W 122°41'0 0.0
2018-Jul-15 07:00N 48°30' W 122°41'0 0.0
2018-Jul-15 06:30N 48°30' W 122°41'0 0.0
2018-Jul-15 05:51N 48°30' W 122°41'0 0.0
2018-Jul-15 05:30N 48°30' W 122°41'0 0.5
2018-Jul-15 05:00N 48°31' W 122°40'0 0.4
2018-Jul-15 04:21N 48°30' W 122°41'0 0.0
2018-Jul-15 04:00N 48°30' W 122°41'2 3.8
2018-Jul-15 03:31N 48°32' W 122°43'714.9
2018-Jul-15 03:01N 48°35' W 122°53'611.1
2018-Jul-15 02:30N 48°32' W 123°01'510.1
2018-Jul-15 01:59N 48°37' W 123°05'613.5
2018-Jul-15 01:30N 48°38' W 123°14'612.0
2018-Jul-15 01:00N 48°38' W 123°23'0 0.7
2018-Jul-15 00:30N 48°39' W 123°24'1 1.0
2018-Jul-15 00:00N 48°38' W 123°23'712.9
2018-Jul-14 23:29N 48°38' W 123°13'713.2
2018-Jul-14 22:59N 48°36' W 123°03'613.5
2018-Jul-14 22:30N 48°34' W 122°54'714.7
2018-Jul-14 22:00N 48°31' W 122°44'2 2.9
2018-Jul-14 21:15N 48°30' W 122°41'2 9.8
2018-Jul-14 21:01N 48°31' W 122°44'714.3
2018-Jul-14 20:31N 48°34' W 122°54'714.0
2018-Jul-14 19:59N 48°36' W 123°04'613.3
2018-Jul-14 19:31N 48°39' W 123°13'713.8
2018-Jul-14 19:00N 48°39' W 123°24'0 0.2
2018-Jul-14 18:30N 48°39' W 123°24'0 0.8
2018-Jul-14 18:00N 48°38' W 123°23'713.3
2018-Jul-14 17:30N 48°38' W 123°13'816.7
2018-Jul-14 17:00N 48°35' W 123°02'2 5.0
2018-Jul-14 16:31N 48°32' W 123°01'712.8
2018-Jul-14 16:00N 48°34' W 122°51'714.9
2018-Jul-14 15:30N 48°31' W 122°41'0 0.9
2018-Jul-14 15:00N 48°30' W 122°41'611.4
2018-Jul-14 14:30N 48°32' W 122°49'2 1.9
2018-Jul-14 13:30N 48°32' W 122°46'4 7.7
2018-Jul-14 13:00N 48°30' W 122°41'0 0.0
2018-Jul-14 10:39N 48°30' W 122°41'0 0.0
2018-Jul-14 10:28N 48°30' W 122°41'0 0.0
2018-Jul-14 09:53N 48°30' W 122°41'0 0.0
2018-Jul-14 09:29N 48°30' W 122°41'0 0.0
2018-Jul-14 08:59N 48°30' W 122°41'0 0.0
2018-Jul-14 08:21N 48°30' W 122°41'0 0.0
2018-Jul-14 08:00N 48°30' W 122°41'0 0.0
2018-Jul-14 07:30N 48°30' W 122°41'0 0.0
2018-Jul-14 07:00N 48°30' W 122°41'0 0.0
2018-Jul-14 06:30N 48°30' W 122°41'0 0.0
2018-Jul-14 05:58N 48°30' W 122°41'0 0.0
2018-Jul-14 05:30N 48°30' W 122°41'0 0.0
2018-Jul-14 05:00N 48°30' W 122°41'0 0.0
2018-Jul-14 04:30N 48°30' W 122°41'0 0.0
2018-Jul-14 03:58N 48°30' W 122°41'1 1.1
2018-Jul-14 03:31N 48°31' W 122°40'814.9
2018-Jul-14 03:00N 48°33' W 122°51'613.0
2018-Jul-14 02:30N 48°32' W 123°01'3 6.6
2018-Jul-14 02:00N 48°35' W 123°03'714.7
2018-Jul-14 01:30N 48°38' W 123°13'713.6
2018-Jul-14 01:00N 48°38' W 123°24'0 0.3
2018-Jul-14 00:30N 48°39' W 123°24'2 4.3
2018-Jul-14 00:01N 48°39' W 123°21'612.5
2018-Jul-13 23:30N 48°38' W 123°12'714.1
2018-Jul-13 23:00N 48°35' W 123°02'713.0
2018-Jul-13 22:30N 48°34' W 122°52'815.5
2018-Jul-13 22:00N 48°31' W 122°42'1 1.2
2018-Jul-13 21:11N 48°30' W 122°41'210.4
2018-Jul-13 21:00N 48°31' W 122°43'714.6
2018-Jul-13 20:31N 48°35' W 122°53'612.7
2018-Jul-13 20:00N 48°35' W 123°03'714.7
2018-Jul-13 19:30N 48°38' W 123°13'714.1
2018-Jul-13 19:00N 48°38' W 123°24'0 0.3
2018-Jul-13 18:30N 48°39' W 123°24'1 2.4
2018-Jul-13 18:00N 48°39' W 123°22'714.3
2018-Jul-13 17:30N 48°38' W 123°11'816.0
2018-Jul-13 17:00N 48°34' W 123°01'2 3.3
2018-Jul-13 16:30N 48°32' W 123°01'612.9
2018-Jul-13 16:00N 48°34' W 122°51'714.8
2018-Jul-13 15:30N 48°31' W 122°41'0 0.8
2018-Jul-13 14:56N 48°30' W 122°41'9 9.7
2018-Jul-13 14:00N 48°34' W 122°53'510.5
2018-Jul-13 13:30N 48°32' W 122°46'4 7.7
2018-Jul-13 13:00N 48°30' W 122°41'0 0.0
2018-Jul-13 09:37N 48°30' W 122°41'0 0.0
2018-Jul-13 06:45N 48°30' W 122°41'0 0.0
2018-Jul-13 06:30N 48°30' W 122°41'0 0.1
2018-Jul-13 05:59N 48°30' W 122°41'0 0.1
2018-Jul-13 05:30N 48°30' W 122°41'0 0.0
2018-Jul-13 05:00N 48°30' W 122°41'0 0.0
2018-Jul-13 04:29N 48°30' W 122°41'0 0.1
2018-Jul-13 04:00N 48°30' W 122°41'4 8.1
2018-Jul-13 03:30N 48°32' W 122°46'612.8
2018-Jul-13 03:01N 48°33' W 122°56'3 6.8
2018-Jul-13 02:31N 48°32' W 123°01'610.4
2018-Jul-13 01:58N 48°37' W 123°05'613.9
2018-Jul-13 01:30N 48°38' W 123°15'611.9
2018-Jul-13 01:00N 48°38' W 123°24'0 0.1
2018-Jul-13 00:30N 48°39' W 123°24'611.7
2018-Jul-13 00:00N 48°38' W 123°15'713.8
2018-Jul-12 23:30N 48°37' W 123°05'713.9
2018-Jul-12 23:00N 48°33' W 122°56'713.2
2018-Jul-12 22:30N 48°32' W 122°46'4 7.2
2018-Jul-12 22:00N 48°30' W 122°41'3 6.2
2018-Jul-12 21:30N 48°32' W 122°45'611.9
2018-Jul-12 21:00N 48°34' W 122°53'510.0
2018-Jul-12 20:30N 48°34' W 123°00'714.1
2018-Jul-12 20:00N 48°38' W 123°09'612.2
2018-Jul-12 19:30N 48°39' W 123°18'4 7.4
2018-Jul-12 19:00N 48°39' W 123°24'1 3.0
2018-Jul-12 18:30N 48°39' W 123°22'611.1
2018-Jul-12 18:00N 48°39' W 123°13'712.9
2018-Jul-12 17:28N 48°36' W 123°04'4 9.4
2018-Jul-12 17:01N 48°32' W 123°01'3 6.5
2018-Jul-12 16:30N 48°33' W 122°56'5 9.8
2018-Jul-12 16:00N 48°32' W 122°49'6 6.3
2018-Jul-12 15:07N 48°30' W 122°41'1 7.4
2018-Jul-12 15:00N 48°31' W 122°41'713.5
2018-Jul-12 14:30N 48°33' W 122°51'2 3.0
2018-Jul-12 14:00N 48°34' W 122°53'611.6
2018-Jul-12 13:30N 48°31' W 122°45'3 6.3
2018-Jul-12 13:00N 48°30' W 122°41'0 0.0
2018-Jul-12 12:15N 48°30' W 122°41'0 0.0
2018-Jul-12 10:19N 48°30' W 122°41'0 0.0
2018-Jul-12 08:39N 48°30' W 122°41'0 0.3
2018-Jul-12 08:30N 48°30' W 122°41'0 0.0
2018-Jul-12 07:58N 48°30' W 122°41'0 0.0
2018-Jul-12 07:27N 48°30' W 122°41'0 0.0
2018-Jul-12 06:59N 48°30' W 122°41'0 0.0
2018-Jul-12 06:26N 48°30' W 122°41'0 0.0
2018-Jul-12 06:00N 48°30' W 122°41'0 0.0
2018-Jul-12 05:31N 48°30' W 122°41'0 0.0
2018-Jul-12 05:00N 48°30' W 122°41'0 0.0
2018-Jul-12 04:31N 48°30' W 122°41'0 0.1
2018-Jul-12 03:59N 48°30' W 122°41'612.0
2018-Jul-12 03:30N 48°32' W 122°49'612.1
2018-Jul-12 03:00N 48°32' W 122°58'2 3.7
2018-Jul-12 02:30N 48°32' W 123°01'510.1
2018-Jul-12 02:00N 48°37' W 123°05'612.8
2018-Jul-12 01:30N 48°38' W 123°14'612.3
2018-Jul-12 01:00N 48°38' W 123°23'1 1.1
2018-Jul-12 00:30N 48°39' W 123°24'4 8.0
2018-Jul-12 00:00N 48°39' W 123°18'714.5
2018-Jul-11 23:29N 48°38' W 123°07'816.1
2018-Jul-11 23:00N 48°33' W 122°57'612.1
2018-Jul-11 22:30N 48°32' W 122°48'5 7.7
2018-Jul-11 21:49N 48°30' W 122°41'2 6.6
2018-Jul-11 21:30N 48°32' W 122°43'612.4
2018-Jul-11 21:00N 48°34' W 122°52'510.0
2018-Jul-11 20:30N 48°33' W 122°59'713.8
2018-Jul-11 19:58N 48°38' W 123°08'612.4
2018-Jul-11 19:30N 48°38' W 123°17'5 9.2
2018-Jul-11 19:01N 48°39' W 123°24'0 0.2
2018-Jul-11 18:30N 48°38' W 123°24'611.3
2018-Jul-11 18:00N 48°39' W 123°15'812.5
2018-Jul-11 17:22N 48°36' W 123°03'411.2
2018-Jul-11 17:00N 48°33' W 123°01'2 3.9
2018-Jul-11 16:30N 48°32' W 122°58'510.4
2018-Jul-11 16:00N 48°33' W 122°50'612.8
2018-Jul-11 15:30N 48°31' W 122°41'0 0.6
2018-Jul-11 15:00N 48°31' W 122°40'713.1
2018-Jul-11 14:30N 48°33' W 122°50'3 5.1
2018-Jul-11 14:01N 48°34' W 122°53'611.5
2018-Jul-11 13:30N 48°31' W 122°45'3 6.2
2018-Jul-11 12:59N 48°30' W 122°41'0 0.0
2018-Jul-11 12:29N 48°30' W 122°41'0 0.0
2018-Jul-11 12:00N 48°30' W 122°41'0 0.0
2018-Jul-11 11:01N 48°30' W 122°41'0 0.0
2018-Jul-11 11:00N 48°30' W 122°41'0 0.0
2018-Jul-11 09:25N 48°30' W 122°41'0 0.0
2018-Jul-11 06:51N 48°30' W 122°41'0 0.0
2018-Jul-11 06:21N 48°30' W 122°41'0 0.0
2018-Jul-11 06:00N 48°30' W 122°41'0 0.0
2018-Jul-11 05:30N 48°30' W 122°41'0 0.0
2018-Jul-11 05:00N 48°30' W 122°41'0 0.0
2018-Jul-11 04:29N 48°30' W 122°41'0 0.0
2018-Jul-11 04:00N 48°30' W 122°41'1 2.7
2018-Jul-11 03:30N 48°31' W 122°42'714.8
2018-Jul-11 03:00N 48°34' W 122°52'612.0
2018-Jul-11 02:30N 48°32' W 123°01'5 9.2
2018-Jul-11 01:58N 48°37' W 123°05'715.6
2018-Jul-11 01:30N 48°38' W 123°15'510.6
2018-Jul-11 01:00N 48°38' W 123°23'1 1.4
2018-Jul-11 00:30N 48°39' W 123°24'510.2
2018-Jul-11 00:00N 48°38' W 123°16'713.7
2018-Jul-10 23:30N 48°37' W 123°06'815.9
2018-Jul-10 23:00N 48°33' W 122°56'612.8
2018-Jul-10 22:30N 48°32' W 122°47'4 8.2
2018-Jul-10 22:00N 48°30' W 122°41'3 5.9
2018-Jul-10 21:30N 48°32' W 122°45'612.6
2018-Jul-10 21:01N 48°34' W 122°53'5 9.7
2018-Jul-10 20:30N 48°34' W 123°00'713.3
2018-Jul-10 19:58N 48°38' W 123°09'511.4
2018-Jul-10 19:30N 48°39' W 123°17'4 8.8
2018-Jul-10 19:00N 48°39' W 123°24'1 1.5
2018-Jul-10 18:31N 48°38' W 123°23'611.7
2018-Jul-10 18:00N 48°39' W 123°14'712.5
2018-Jul-10 17:25N 48°36' W 123°03'410.0
2018-Jul-10 17:00N 48°32' W 123°01'4 7.8
2018-Jul-10 16:30N 48°33' W 122°55'510.6
2018-Jul-10 16:00N 48°32' W 122°48'5 8.9
2018-Jul-10 15:28N 48°30' W 122°41'2 3.9
2018-Jul-10 15:00N 48°31' W 122°43'713.6
2018-Jul-10 14:31N 48°34' W 122°52'0 0.0
2018-Jul-10 14:00N 48°34' W 122°52'612.2
2018-Jul-10 13:30N 48°31' W 122°44'3 5.2
2018-Jul-10 13:00N 48°30' W 122°41'0 0.0
2018-Jul-10 09:46N 48°30' W 122°41'0 0.0
2018-Jul-10 08:46N 48°30' W 122°41'0 0.1
2018-Jul-10 08:21N 48°30' W 122°41'0 0.1
2018-Jul-10 07:53N 48°30' W 122°41'0 0.0
2018-Jul-10 06:39N 48°30' W 122°41'0 0.0
2018-Jul-10 06:22N 48°30' W 122°41'0 0.0
2018-Jul-10 06:00N 48°30' W 122°41'0 0.0
2018-Jul-10 05:29N 48°30' W 122°41'0 0.1
2018-Jul-10 04:48N 48°30' W 122°41'0 0.0
2018-Jul-10 04:02N 48°30' W 122°41'0 3.8
2018-Jul-10 04:00N 48°31' W 122°41'713.2
2018-Jul-10 03:31N 48°33' W 122°50'612.7
2018-Jul-10 03:00N 48°33' W 122°60'1 1.4
2018-Jul-10 02:30N 48°32' W 123°01'714.1
2018-Jul-10 02:00N 48°38' W 123°08'815.9
2018-Jul-10 01:29N 48°39' W 123°20'3 5.5
2018-Jul-10 01:01N 48°39' W 123°24'3 5.1
2018-Jul-10 00:30N 48°39' W 123°20'510.7
2018-Jul-10 00:00N 48°38' W 123°12'815.6
2018-Jul-09 23:31N 48°35' W 123°01'612.8
2018-Jul-09 23:01N 48°34' W 122°52'815.1
2018-Jul-09 22:30N 48°31' W 122°41'1 1.7
2018-Jul-09 22:00N 48°30' W 122°41'4 8.4
2018-Jul-09 21:30N 48°32' W 122°47'611.4
2018-Jul-09 21:00N 48°34' W 122°55'510.2
2018-Jul-09 20:30N 48°35' W 123°02'613.1
2018-Jul-09 20:01N 48°38' W 123°11'510.3
2018-Jul-09 19:30N 48°39' W 123°19'3 7.0
2018-Jul-09 19:00N 48°39' W 123°24'1 1.8
2018-Jul-09 18:30N 48°39' W 123°22'611.8
2018-Jul-09 18:00N 48°38' W 123°14'612.1
2018-Jul-09 17:30N 48°37' W 123°05'510.5
2018-Jul-09 17:00N 48°32' W 123°01'4 8.3
2018-Jul-09 16:30N 48°33' W 122°55'611.1
2018-Jul-09 16:00N 48°32' W 122°47'4 8.6
2018-Jul-09 15:30N 48°30' W 122°41'1 1.6
2018-Jul-09 15:00N 48°31' W 122°41'713.4
2018-Jul-09 14:30N 48°33' W 122°51'2 3.7
2018-Jul-09 14:01N 48°34' W 122°53'713.7
2018-Jul-09 13:31N 48°31' W 122°44'2 4.1
2018-Jul-09 12:59N 48°30' W 122°41'0 0.0
2018-Jul-09 11:48N 48°30' W 122°41'0 0.0
2018-Jul-09 10:01N 48°30' W 122°41'0 0.0
2018-Jul-09 06:23N 48°30' W 122°41'0 0.0
2018-Jul-09 05:59N 48°30' W 122°41'0 0.0
2018-Jul-09 05:30N 48°30' W 122°41'0 0.0
2018-Jul-09 04:58N 48°30' W 122°41'0 0.0
2018-Jul-09 04:30N 48°30' W 122°41'0 0.1
2018-Jul-09 04:00N 48°30' W 122°41'511.0
2018-Jul-09 03:30N 48°32' W 122°48'612.2
2018-Jul-09 03:00N 48°32' W 122°58'2 4.2
2018-Jul-09 02:30N 48°32' W 123°01'713.7
2018-Jul-09 02:00N 48°38' W 123°07'815.3
2018-Jul-09 01:30N 48°39' W 123°18'4 7.2
2018-Jul-09 01:00N 48°39' W 123°24'0 0.0
2018-Jul-09 00:30N 48°39' W 123°24'713.1
2018-Jul-09 00:00N 48°38' W 123°14'815.1
2018-Jul-08 23:30N 48°36' W 123°03'713.9
2018-Jul-08 23:01N 48°35' W 122°53'815.0
2018-Jul-08 22:31N 48°31' W 122°43'2 1.9
2018-Jul-08 21:40N 48°31' W 122°41'210.9
2018-Jul-08 21:30N 48°31' W 122°43'713.1
2018-Jul-08 21:01N 48°34' W 122°52'510.6
2018-Jul-08 20:30N 48°34' W 122°60'714.3
2018-Jul-08 20:00N 48°38' W 123°09'612.1
2018-Jul-08 19:30N 48°39' W 123°18'4 7.7
2018-Jul-08 19:00N 48°39' W 123°24'0 0.2
2018-Jul-08 18:30N 48°38' W 123°24'612.0
2018-Jul-08 18:00N 48°38' W 123°14'712.0
2018-Jul-08 17:25N 48°36' W 123°04'511.7
2018-Jul-08 17:01N 48°32' W 123°01'3 6.0
2018-Jul-08 16:30N 48°33' W 122°56'5 9.4
2018-Jul-08 16:00N 48°32' W 122°49'6 6.3
2018-Jul-08 15:04N 48°30' W 122°41'0 2.4
2018-Jul-08 14:59N 48°31' W 122°40'613.3
2018-Jul-08 14:30N 48°32' W 122°50'3 6.1
2018-Jul-08 14:01N 48°34' W 122°53'612.6
2018-Jul-08 13:30N 48°31' W 122°44'3 5.5
2018-Jul-08 13:00N 48°30' W 122°41'0 0.0
2018-Jul-08 12:24N 48°30' W 122°41'0 0.0
2018-Jul-08 11:57N 48°30' W 122°41'0 0.0
2018-Jul-08 11:23N 48°30' W 122°41'0 0.0
2018-Jul-08 10:54N 48°30' W 122°41'0 0.0
2018-Jul-08 10:07N 48°30' W 122°41'0 0.0
2018-Jul-08 09:47N 48°30' W 122°41'0 0.0
2018-Jul-08 06:16N 48°30' W 122°41'0 0.0
2018-Jul-08 06:00N 48°30' W 122°41'0 0.0
2018-Jul-08 05:30N 48°30' W 122°41'0 0.0
2018-Jul-08 04:59N 48°30' W 122°41'  

Dump ship's entire track history